Time;durP1;ratioP1;P1;durP2;ratioP2;P2;SDS_P1;SDS_P2;PMS_P1;PMS_P2;Temp;Humidity;BMP_temperature;BMP_pressure;BME280_temperature;BME280_humidity;BME280_pressure;Samples;Min_cycle;Max_cycle;Signal;HPM_P1;HPM_P2
2024/02/06 00:02:23;;;;;;;13.60;3.20;;;;;;;;;;103703;1290;545200;-74
2024/02/06 00:06:00;;;;;;;12.30;3.00;;;;;;;;;;103680;1294;545606;-73
2024/02/06 00:09:38;;;;;;;10.20;3.00;;;;;;;;;;103843;1289;544872;-71
2024/02/06 00:13:16;;;;;;;11.10;2.90;;;;;;;;;;103745;1291;544986;-74
2024/02/06 00:16:53;;;;;;;11.00;3.00;;;;;;;;;;104752;1280;544975;-74
2024/02/06 00:20:50;;;;;;;11.00;3.20;;;;;;;;;;103693;1292;548609;-73
2024/02/06 00:24:07;;;;;;;13.30;3.20;;;;;;;;;;103746;1290;544749;-72
2024/02/06 00:27:45;;;;;;;13.80;3.50;;;;;;;;;;103758;1289;545478;-74
2024/02/06 00:31:22;;;;;;;11.70;3.30;;;;;;;;;;103831;1292;545828;-75
2024/02/06 00:35:04;;;;;;;12.90;3.20;;;;;;;;;;103861;1289;545787;-73
2024/02/06 00:38:37;;;;;;;11.00;3.20;;;;;;;;;;103821;1292;544969;-75
2024/02/06 00:42:15;;;;;;;11.60;3.10;;;;;;;;;;103731;1292;545068;-73
2024/02/06 00:45:52;;;;;;;12.40;3.20;;;;;;;;;;103792;1289;545454;-73
2024/02/06 00:49:35;;;;;;;10.30;3.20;;;;;;;;;;104428;1282;549112;-74
2024/02/06 00:53:07;;;;;;;11.80;3.50;;;;;;;;;;103850;1289;545594;-73
2024/02/06 00:56:44;;;;;;;12.60;3.80;;;;;;;;;;103723;1291;545924;-74
2024/02/06 01:00:22;;;;;;;14.50;3.90;;;;;;;;;;103771;1292;546751;-73
2024/02/06 01:03:56;;;;;;;10.90;3.60;;;;;;;;;;104117;1285;545455;-75
2024/02/06 01:07:37;;;;;;;11.40;3.60;;;;;;;;;;103791;1295;544966;-73
2024/02/06 01:11:55;;;;;;;15.20;3.90;;;;;;;;;;105373;1276;546507;-74
2024/02/06 01:14:55;;;;;;;12.80;3.70;;;;;;;;;;104422;1288;545428;-74
2024/02/06 01:18:34;;;;;;;13.00;3.50;;;;;;;;;;104265;1286;545077;-73
2024/02/06 01:22:07;;;;;;;11.90;4.40;;;;;;;;;;103831;1294;545945;-71
2024/02/06 01:25:45;;;;;;;9.50;3.30;;;;;;;;;;103633;1291;545625;-74
2024/02/06 01:29:22;;;;;;;13.40;4.10;;;;;;;;;;103860;1292;545682;-73
2024/02/06 01:32:59;;;;;;;14.90;3.90;;;;;;;;;;103780;1290;544778;-73
2024/02/06 01:36:38;;;;;;;14.00;3.70;;;;;;;;;;104095;1289;545935;-72
2024/02/06 01:40:16;;;;;;;13.90;3.80;;;;;;;;;;103810;1291;545393;-73
2024/02/06 01:43:52;;;;;;;12.00;3.50;;;;;;;;;;104206;1290;545784;-74
2024/02/06 01:47:27;;;;;;;13.30;4.10;;;;;;;;;;104556;1282;544998;-73
2024/02/06 01:51:07;;;;;;;12.90;3.70;;;;;;;;;;104003;1295;545138;-73
2024/02/06 01:54:44;;;;;;;14.60;4.10;;;;;;;;;;103907;1289;544998;-75
2024/02/06 02:03:54;;;;;;;13.80;4.30;;;;;;;;;;105227;1281;553519;-75
2024/02/06 02:06:40;;;;;;;13.00;3.80;;;;;;;;;;103802;1292;545327;-73
2024/02/06 02:10:17;;;;;;;15.30;4.30;;;;;;;;;;103723;1291;545078;-74
2024/02/06 02:13:54;;;;;;;12.00;4.30;;;;;;;;;;103440;1297;545069;-73
2024/02/06 02:17:27;;;;;;;13.00;3.90;;;;;;;;;;103776;1291;544971;-73
2024/02/06 02:21:09;;;;;;;11.50;4.40;;;;;;;;;;103772;1289;545721;-70
2024/02/06 02:24:47;;;;;;;13.10;4.80;;;;;;;;;;103677;1295;545433;-75
2024/02/06 02:28:24;;;;;;;12.80;4.60;;;;;;;;;;103802;1289;544971;-72
2024/02/06 02:32:02;;;;;;;13.50;4.50;;;;;;;;;;103744;1292;545254;-75
2024/02/06 02:35:39;;;;;;;13.60;4.20;;;;;;;;;;103767;1292;545498;-73
2024/02/06 02:39:16;;;;;;;11.80;4.80;;;;;;;;;;103419;1293;544811;-73
2024/02/06 02:42:55;;;;;;;13.30;4.60;;;;;;;;;;103652;1291;545188;-73
2024/02/06 02:46:32;;;;;;;11.60;4.00;;;;;;;;;;103807;1289;544907;-70
2024/02/06 02:50:12;;;;;;;12.20;4.20;;;;;;;;;;103675;1292;545349;-75
2024/02/06 02:53:46;;;;;;;15.90;4.80;;;;;;;;;;103803;1289;546756;-73
2024/02/06 02:57:20;;;;;;;11.20;4.20;;;;;;;;;;103757;1290;544917;-72
2024/02/06 03:01:01;;;;;;;12.70;4.70;;;;;;;;;;103789;1291;545595;-73
2024/02/06 03:04:40;;;;;;;11.60;4.70;;;;;;;;;;103744;1292;544740;-74
2024/02/06 03:08:16;;;;;;;11.10;4.20;;;;;;;;;;103826;1289;544811;-73
2024/02/06 03:11:54;;;;;;;10.40;3.80;;;;;;;;;;103759;1292;545070;-74
2024/02/06 03:15:31;;;;;;;13.00;4.70;;;;;;;;;;103713;1291;545603;-75
2024/02/06 03:19:05;;;;;;;15.30;5.00;;;;;;;;;;103963;1289;544948;-74
2024/02/06 03:22:47;;;;;;;11.40;4.20;;;;;;;;;;103746;1290;545455;-72
2024/02/06 03:26:24;;;;;;;15.20;4.80;;;;;;;;;;103785;1288;544759;-74
2024/02/06 03:30:02;;;;;;;16.90;4.80;;;;;;;;;;103790;1289;544943;-73
2024/02/06 03:33:39;;;;;;;12.40;4.70;;;;;;;;;;103656;1290;544744;-73
2024/02/06 03:37:13;;;;;;;14.90;5.10;;;;;;;;;;103933;1290;545289;-73
2024/02/06 03:40:53;;;;;;;13.20;4.80;;;;;;;;;;103847;1292;544991;-71
2024/02/06 03:44:26;;;;;;;12.70;4.60;;;;;;;;;;103865;1300;545337;-70
2024/02/06 03:48:06;;;;;;;12.20;4.70;;;;;;;;;;103777;1290;544854;-72
2024/02/06 03:51:45;;;;;;;14.50;5.50;;;;;;;;;;103556;1295;545480;-73
2024/02/06 03:55:23;;;;;;;14.80;5.40;;;;;;;;;;103689;1292;546084;-72
2024/02/06 03:58:56;;;;;;;14.00;4.70;;;;;;;;;;104616;1282;545272;-72
2024/02/06 04:02:39;;;;;;;12.20;5.30;;;;;;;;;;103847;1294;545587;-74
2024/02/06 04:06:15;;;;;;;13.60;5.00;;;;;;;;;;103870;1288;544751;-73
2024/02/06 04:09:53;;;;;;;12.90;4.80;;;;;;;;;;103647;1291;544995;-74
2024/02/06 04:13:30;;;;;;;11.50;5.30;;;;;;;;;;103774;1292;544987;-71
2024/02/06 04:17:04;;;;;;;13.90;5.60;;;;;;;;;;103873;1289;545451;-72
2024/02/06 04:20:45;;;;;;;13.30;5.00;;;;;;;;;;103838;1289;545615;-72
2024/02/06 04:24:23;;;;;;;13.40;5.00;;;;;;;;;;103592;1295;545077;-71
2024/02/06 04:28:00;;;;;;;13.90;5.00;;;;;;;;;;103716;1291;545663;-71
2024/02/06 04:31:39;;;;;;;13.90;5.10;;;;;;;;;;103871;1291;545547;-72
2024/02/06 04:35:20;;;;;;;16.10;5.40;;;;;;;;;;103765;1289;545878;-72
2024/02/06 04:38:53;;;;;;;12.00;5.20;;;;;;;;;;103796;1289;544942;-72
2024/02/06 04:42:30;;;;;;;11.20;5.00;;;;;;;;;;103735;1290;544868;-70
2024/02/06 04:46:08;;;;;;;13.30;4.50;;;;;;;;;;103830;1293;545066;-72
2024/02/06 04:49:44;;;;;;;14.00;5.00;;;;;;;;;;103886;1292;545233;-72
2024/02/06 04:53:22;;;;;;;12.40;4.50;;;;;;;;;;103815;1289;545628;-72
2024/02/06 04:56:59;;;;;;;10.90;3.90;;;;;;;;;;103902;1291;544734;-72
2024/02/06 05:00:37;;;;;;;13.10;4.30;;;;;;;;;;103759;1292;545811;-71
2024/02/06 05:04:11;;;;;;;12.40;4.50;;;;;;;;;;103753;1291;545317;-72
2024/02/06 05:07:53;;;;;;;10.90;3.90;;;;;;;;;;103743;1311;544830;-73
2024/02/06 05:11:30;;;;;;;14.00;4.30;;;;;;;;;;103753;1289;545783;-72
2024/02/06 05:15:08;;;;;;;11.00;3.90;;;;;;;;;;103840;1289;545486;-72
2024/02/06 05:18:44;;;;;;;12.70;4.60;;;;;;;;;;103729;1292;545074;-73
2024/02/06 05:22:21;;;;;;;11.30;4.20;;;;;;;;;;103813;1292;545681;-73
2024/02/06 05:25:59;;;;;;;11.90;4.00;;;;;;;;;;103699;1292;545371;-75
2024/02/06 05:29:37;;;;;;;9.00;3.40;;;;;;;;;;103663;1295;544804;-74
2024/02/06 05:33:15;;;;;;;10.90;3.50;;;;;;;;;;103874;1288;545341;-73
2024/02/06 05:36:52;;;;;;;12.30;3.80;;;;;;;;;;103634;1292;544992;-73
2024/02/06 05:40:29;;;;;;;10.00;3.40;;;;;;;;;;103826;1289;544757;-74
2024/02/06 05:44:03;;;;;;;12.50;3.70;;;;;;;;;;103786;1289;545186;-72
2024/02/06 05:47:46;;;;;;;8.70;2.80;;;;;;;;;;103651;1291;547984;-73
2024/02/06 05:51:22;;;;;;;8.30;2.70;;;;;;;;;;103829;1289;545062;-70
2024/02/06 05:55:01;;;;;;;9.90;3.00;;;;;;;;;;103732;1292;544848;-74
2024/02/06 05:58:39;;;;;;;9.70;3.10;;;;;;;;;;104098;1289;545096;-73
2024/02/06 06:02:14;;;;;;;8.70;2.80;;;;;;;;;;103732;1295;545004;-72
2024/02/06 06:05:51;;;;;;;8.40;2.60;;;;;;;;;;103712;1288;544960;-73
2024/02/06 06:09:29;;;;;;;8.30;2.80;;;;;;;;;;103779;1288;545050;-72
2024/02/06 06:13:03;;;;;;;8.60;2.80;;;;;;;;;;103805;1292;545678;-72
2024/02/06 06:16:44;;;;;;;10.90;3.10;;;;;;;;;;103814;1289;545316;-72
2024/02/06 06:20:21;;;;;;;8.90;3.10;;;;;;;;;;103806;1289;545075;-73
2024/02/06 06:23:58;;;;;;;8.20;3.80;;;;;;;;;;103809;1290;545724;-75
2024/02/06 06:27:39;;;;;;;10.40;3.50;;;;;;;;;;103772;1290;545616;-75
2024/02/06 06:31:14;;;;;;;9.90;3.00;;;;;;;;;;103614;1291;544816;-71
2024/02/06 06:34:51;;;;;;;8.30;2.90;;;;;;;;;;103805;1289;545499;-73
2024/02/06 06:38:25;;;;;;;8.50;2.70;;;;;;;;;;104105;1286;545610;-74
2024/02/06 06:42:06;;;;;;;9.50;2.90;;;;;;;;;;103654;1294;545480;-75
2024/02/06 06:45:43;;;;;;;9.70;2.50;;;;;;;;;;103712;1290;545086;-74
2024/02/06 06:49:21;;;;;;;8.00;2.60;;;;;;;;;;103838;1289;545060;-74
2024/02/06 06:52:59;;;;;;;6.60;2.00;;;;;;;;;;103958;1291;545083;-75
2024/02/06 06:56:55;;;;;;;6.50;2.10;;;;;;;;;;103791;1292;547850;-72
2024/02/06 07:00:13;;;;;;;9.80;2.70;;;;;;;;;;103862;1288;545339;-72
2024/02/06 07:03:51;;;;;;;9.80;2.50;;;;;;;;;;103965;1292;545244;-73
2024/02/06 07:07:25;;;;;;;9.40;2.70;;;;;;;;;;104048;1289;544954;-70
2024/02/06 07:11:06;;;;;;;8.80;2.20;;;;;;;;;;103747;1289;545613;-74
2024/02/06 07:14:39;;;;;;;7.80;2.20;;;;;;;;;;103753;1289;545015;-72
2024/02/06 07:18:21;;;;;;;9.80;2.50;;;;;;;;;;103779;1291;545623;-73
2024/02/06 07:22:00;;;;;;;8.60;2.30;;;;;;;;;;103694;1292;545483;-72
2024/02/06 07:25:36;;;;;;;8.20;2.40;;;;;;;;;;103724;1292;544968;-73
2024/02/06 07:29:13;;;;;;;10.10;2.20;;;;;;;;;;103685;1292;545025;-73
2024/02/06 07:32:51;;;;;;;10.00;2.70;;;;;;;;;;103834;1292;544953;-73
2024/02/06 07:36:29;;;;;;;7.80;2.40;;;;;;;;;;103807;1291;545051;-73
2024/02/06 07:40:06;;;;;;;9.90;2.10;;;;;;;;;;103911;1289;544985;-74
2024/02/06 07:43:43;;;;;;;9.00;2.50;;;;;;;;;;103721;1289;545008;-73
2024/02/06 07:47:20;;;;;;;11.20;3.20;;;;;;;;;;104027;1289;545747;-73
2024/02/06 07:50:54;;;;;;;11.90;3.00;;;;;;;;;;104023;1289;544987;-73
2024/02/06 07:54:35;;;;;;;11.10;3.20;;;;;;;;;;103854;1292;545018;-74
2024/02/06 07:58:09;;;;;;;10.20;3.20;;;;;;;;;;103951;1288;546933;-72
2024/02/06 08:01:50;;;;;;;9.40;2.60;;;;;;;;;;103867;1289;545506;-73
2024/02/06 08:05:31;;;;;;;10.00;2.60;;;;;;;;;;103808;1292;545548;-73
2024/02/06 08:09:05;;;;;;;10.00;2.60;;;;;;;;;;103844;1288;545319;-75
2024/02/06 08:12:43;;;;;;;12.20;3.40;;;;;;;;;;103872;1289;544786;-72
2024/02/06 08:16:17;;;;;;;10.60;3.00;;;;;;;;;;103934;1289;545513;-74
2024/02/06 08:20:03;;;;;;;9.10;2.60;;;;;;;;;;103422;1294;547795;-75
2024/02/06 08:23:35;;;;;;;6.60;1.90;;;;;;;;;;103792;1290;544966;-75
2024/02/06 08:27:13;;;;;;;9.00;2.40;;;;;;;;;;103977;1290;545042;-73
2024/02/06 08:30:51;;;;;;;12.60;2.70;;;;;;;;;;104292;1288;544789;-74
2024/02/06 08:34:27;;;;;;;9.60;1.90;;;;;;;;;;103876;1291;545618;-71
2024/02/06 08:38:04;;;;;;;6.70;1.70;;;;;;;;;;104114;1292;545515;-72
2024/02/06 08:41:48;;;;;;;8.60;1.90;;;;;;;;;;103616;1293;547940;-76
2024/02/06 08:45:20;;;;;;;8.80;2.10;;;;;;;;;;103919;1289;545111;-73
2024/02/06 08:48:59;;;;;;;7.00;1.70;;;;;;;;;;103776;1291;545069;-73
2024/02/06 08:52:31;;;;;;;7.30;1.80;;;;;;;;;;103785;1290;545615;-72
2024/02/06 08:56:12;;;;;;;7.00;1.70;;;;;;;;;;103821;1292;544779;-72
2024/02/06 08:59:49;;;;;;;7.80;2.20;;;;;;;;;;103899;1289;545693;-73
2024/02/06 09:03:27;;;;;;;10.70;2.50;;;;;;;;;;103708;1291;545417;-75
2024/02/06 09:07:01;;;;;;;7.70;2.00;;;;;;;;;;103863;1292;544980;-73
2024/02/06 09:10:42;;;;;;;9.90;2.60;;;;;;;;;;104287;1285;544936;-74
2024/02/06 09:14:19;;;;;;;8.60;2.10;;;;;;;;;;103794;1290;544928;-72
2024/02/06 09:17:58;;;;;;;8.20;1.80;;;;;;;;;;103959;1289;544925;-73
2024/02/06 09:21:35;;;;;;;8.00;2.00;;;;;;;;;;103797;1291;545597;-73
2024/02/06 09:25:08;;;;;;;9.50;3.40;;;;;;;;;;103826;1289;544914;-73
2024/02/06 09:28:49;;;;;;;9.80;2.60;;;;;;;;;;103874;1293;544976;-74
2024/02/06 09:32:28;;;;;;;7.20;2.00;;;;;;;;;;103824;1289;544986;-72
2024/02/06 09:36:06;;;;;;;10.60;2.20;;;;;;;;;;103799;1291;544801;-73
2024/02/06 09:39:42;;;;;;;7.40;2.20;;;;;;;;;;103907;1290;545614;-72
2024/02/06 09:43:21;;;;;;;8.30;2.10;;;;;;;;;;103771;1290;545092;-73
2024/02/06 09:47:01;;;;;;;8.50;2.50;;;;;;;;;;103936;1289;544790;-75
2024/02/06 09:50:34;;;;;;;8.80;2.10;;;;;;;;;;103741;1292;545262;-73
2024/02/06 09:54:14;;;;;;;8.50;2.40;;;;;;;;;;103805;1290;545049;-73
2024/02/06 09:57:50;;;;;;;13.00;3.20;;;;;;;;;;103838;1294;546147;-73
2024/02/06 10:01:22;;;;;;;8.70;2.50;;;;;;;;;;103737;1289;545271;-74
2024/02/06 10:05:02;;;;;;;7.50;2.10;;;;;;;;;;104035;1289;544871;-70
2024/02/06 10:08:43;;;;;;;9.20;2.40;;;;;;;;;;103780;1291;544778;-72
2024/02/06 10:12:18;;;;;;;8.40;2.40;;;;;;;;;;103777;1292;545036;-73
2024/02/06 10:15:56;;;;;;;7.70;2.50;;;;;;;;;;103750;1289;544940;-74
2024/02/06 10:19:33;;;;;;;8.90;2.20;;;;;;;;;;103825;1289;545881;-74
2024/02/06 10:23:14;;;;;;;9.10;2.70;;;;;;;;;;103791;1289;544744;-74
2024/02/06 10:26:57;;;;;;;8.20;2.00;;;;;;;;;;103773;1292;544660;-72
2024/02/06 10:30:25;;;;;;;7.20;2.40;;;;;;;;;;103745;1291;544724;-73
2024/02/06 10:34:07;;;;;;;8.90;2.40;;;;;;;;;;103787;1291;544933;-75
2024/02/06 10:37:41;;;;;;;10.70;3.00;;;;;;;;;;103833;1301;544912;-75
2024/02/06 10:41:15;;;;;;;7.70;2.10;;;;;;;;;;103924;1289;544753;-70
2024/02/06 10:44:56;;;;;;;9.10;2.30;;;;;;;;;;104050;1289;544981;-71
2024/02/06 10:48:33;;;;;;;9.30;2.20;;;;;;;;;;103833;1297;544742;-74
2024/02/06 10:52:11;;;;;;;9.60;2.50;;;;;;;;;;103817;1289;545580;-77
2024/02/06 10:55:50;;;;;;;8.80;2.70;;;;;;;;;;103770;1290;544779;-74
2024/02/06 10:59:29;;;;;;;8.20;2.90;;;;;;;;;;103822;1289;544895;-72
2024/02/06 11:03:09;;;;;;;8.20;2.10;;;;;;;;;;103833;1288;545769;-73
2024/02/06 11:06:41;;;;;;;8.60;2.30;;;;;;;;;;104138;1292;545322;-73
2024/02/06 11:10:21;;;;;;;6.00;1.90;;;;;;;;;;103803;1290;545564;-72
2024/02/06 11:13:52;;;;;;;7.80;2.30;;;;;;;;;;103791;1292;545201;-74
2024/02/06 11:17:34;;;;;;;9.40;3.40;;;;;;;;;;103787;1289;544789;-74
2024/02/06 11:21:13;;;;;;;7.70;2.30;;;;;;;;;;103770;1296;545407;-73
2024/02/06 11:24:49;;;;;;;8.50;2.90;;;;;;;;;;103812;1291;546445;-74
2024/02/06 11:28:22;;;;;;;9.20;2.60;;;;;;;;;;104424;1286;545671;-72
2024/02/06 11:32:04;;;;;;;7.30;2.30;;;;;;;;;;103811;1292;544797;-72
2024/02/06 11:35:40;;;;;;;7.50;2.30;;;;;;;;;;103758;1290;544993;-73
2024/02/06 11:39:21;;;;;;;9.10;2.80;;;;;;;;;;104138;1290;544809;-73
2024/02/06 11:43:01;;;;;;;10.60;2.50;;;;;;;;;;104215;1288;544921;-75
2024/02/06 11:46:44;;;;;;;9.00;3.00;;;;;;;;;;104114;1289;544619;-73
2024/02/06 11:50:12;;;;;;;8.60;2.60;;;;;;;;;;103856;1290;545169;-75
2024/02/06 11:53:48;;;;;;;9.20;2.70;;;;;;;;;;103810;1289;545059;-75
2024/02/06 11:57:25;;;;;;;7.30;2.30;;;;;;;;;;103810;1295;544928;-74
2024/02/06 12:01:06;;;;;;;8.20;2.80;;;;;;;;;;103936;1289;544822;-75
2024/02/06 12:04:40;;;;;;;11.00;4.30;;;;;;;;;;103842;1292;544986;-75
2024/02/06 12:08:19;;;;;;;10.00;3.30;;;;;;;;;;103838;1292;544972;-72
2024/02/06 12:11:55;;;;;;;8.80;2.60;;;;;;;;;;103861;1292;544790;-73
2024/02/06 12:15:33;;;;;;;7.00;1.80;;;;;;;;;;103833;1293;545767;-74
2024/02/06 12:19:10;;;;;;;11.50;3.10;;;;;;;;;;104066;1299;545348;-75
2024/02/06 12:23:05;;;;;;;8.80;2.60;;;;;;;;;;103739;1289;544798;-74
2024/02/06 12:26:24;;;;;;;7.60;2.40;;;;;;;;;;103802;1290;545973;-75
2024/02/06 12:30:03;;;;;;;10.00;2.60;;;;;;;;;;103926;1292;544881;-74
2024/02/06 12:33:40;;;;;;;7.20;2.20;;;;;;;;;;103761;1291;544814;-76
2024/02/06 12:37:18;;;;;;;8.80;2.90;;;;;;;;;;103961;1289;544943;-75
2024/02/06 12:40:58;;;;;;;6.70;2.20;;;;;;;;;;103564;1306;545859;-73
2024/02/06 12:44:33;;;;;;;8.50;2.10;;;;;;;;;;103803;1289;545508;-76
2024/02/06 12:48:12;;;;;;;7.90;2.50;;;;;;;;;;103532;1291;547810;-73
2024/02/06 12:51:44;;;;;;;8.30;2.30;;;;;;;;;;103850;1289;545187;-75
2024/02/06 12:55:25;;;;;;;6.80;2.50;;;;;;;;;;103859;1289;545018;-77
2024/02/06 12:59:03;;;;;;;7.80;2.30;;;;;;;;;;103775;1292;544978;-75
2024/02/06 13:02:40;;;;;;;8.00;2.50;;;;;;;;;;103816;1290;544717;-72
2024/02/06 13:06:17;;;;;;;7.10;2.40;;;;;;;;;;103841;1295;545976;-76
2024/02/06 13:10:05;;;;;;;8.40;2.50;;;;;;;;;;104194;1285;545075;-73
2024/02/06 13:13:32;;;;;;;8.30;2.40;;;;;;;;;;104054;1289;544769;-73
2024/02/06 13:17:11;;;;;;;7.60;2.30;;;;;;;;;;103791;1289;545409;-74
2024/02/06 13:20:57;;;;;;;9.70;2.00;;;;;;;;;;103778;1293;545987;-71
2024/02/06 13:24:25;;;;;;;7.30;2.10;;;;;;;;;;104011;1289;544947;-75
2024/02/06 13:28:02;;;;;;;8.20;2.40;;;;;;;;;;104521;1283;545794;-73
2024/02/06 13:31:39;;;;;;;8.50;2.90;;;;;;;;;;103800;1301;545016;-71
2024/02/06 13:35:19;;;;;;;24.50;13.60;;;;;;;;;;103845;1289;544859;-73
2024/02/06 13:38:50;;;;;;;10.40;5.30;;;;;;;;;;103882;1289;544869;-74
2024/02/06 13:42:32;;;;;;;8.40;3.70;;;;;;;;;;103778;1292;545241;-76
2024/02/06 13:46:09;;;;;;;11.00;4.90;;;;;;;;;;104006;1287;545143;-74
2024/02/06 13:49:47;;;;;;;9.30;3.50;;;;;;;;;;103852;1290;545243;-74
2024/02/06 13:53:24;;;;;;;14.50;7.30;;;;;;;;;;104666;1283;545082;-76
2024/02/06 13:56:58;;;;;;;12.60;6.00;;;;;;;;;;103874;1288;544787;-76
2024/02/06 14:00:38;;;;;;;10.20;4.90;;;;;;;;;;103823;1295;545533;-73
2024/02/06 14:04:16;;;;;;;10.30;4.40;;;;;;;;;;103833;1289;544777;-74
2024/02/06 14:07:53;;;;;;;9.90;4.30;;;;;;;;;;103799;1290;546333;-74
2024/02/06 14:11:31;;;;;;;14.20;6.10;;;;;;;;;;103881;1292;545713;-71
2024/02/06 14:15:15;;;;;;;28.70;18.30;;;;;;;;;;103713;1293;547934;-71
2024/02/06 14:18:46;;;;;;;21.20;13.70;;;;;;;;;;103748;1290;544737;-74
2024/02/06 14:22:23;;;;;;;59.40;35.00;;;;;;;;;;104185;1288;545881;-75
2024/02/06 14:26:04;;;;;;;85.30;50.20;;;;;;;;;;103805;1291;546445;-74
2024/02/06 14:29:38;;;;;;;50.40;29.70;;;;;;;;;;103877;1289;545824;-74
2024/02/06 14:33:16;;;;;;;34.80;22.30;;;;;;;;;;103788;1291;544988;-72
2024/02/06 14:36:51;;;;;;;15.30;9.90;;;;;;;;;;103801;1289;545054;-72
2024/02/06 14:40:31;;;;;;;9.40;2.70;;;;;;;;;;103957;1293;545786;-73
2024/02/06 14:44:08;;;;;;;7.60;2.80;;;;;;;;;;103739;1293;545059;-72
2024/02/06 14:47:46;;;;;;;14.50;7.20;;;;;;;;;;103966;1295;545033;-76
2024/02/06 14:51:23;;;;;;;28.30;17.30;;;;;;;;;;103544;1301;545560;-74
2024/02/06 14:54:57;;;;;;;23.90;13.80;;;;;;;;;;103924;1289;544778;-73
2024/02/06 14:58:39;;;;;;;21.40;10.50;;;;;;;;;;104088;1289;544897;-71
2024/02/06 15:02:16;;;;;;;23.00;17.60;;;;;;;;;;104059;1295;544927;-74
2024/02/06 15:05:53;;;;;;;12.50;5.70;;;;;;;;;;104863;1294;546001;-74
2024/02/06 15:09:32;;;;;;;15.40;9.20;;;;;;;;;;105182;1282;545962;-74
2024/02/06 15:13:08;;;;;;;11.20;4.30;;;;;;;;;;105367;1283;545766;-74
2024/02/06 15:16:47;;;;;;;11.60;5.50;;;;;;;;;;103808;1290;545037;-73
2024/02/06 15:20:24;;;;;;;34.90;21.60;;;;;;;;;;104154;1301;546573;-74
2024/02/06 15:24:01;;;;;;;24.20;11.90;;;;;;;;;;104075;1288;544970;-74
2024/02/06 15:27:38;;;;;;;23.10;10.90;;;;;;;;;;103805;1290;545135;-72
2024/02/06 15:31:12;;;;;;;15.70;8.40;;;;;;;;;;104446;1282;544896;-71
2024/02/06 15:34:53;;;;;;;16.80;9.00;;;;;;;;;;103875;1291;544799;-73
2024/02/06 15:38:30;;;;;;;15.90;8.40;;;;;;;;;;103943;1288;544762;-73
2024/02/06 15:42:13;;;;;;;10.50;5.10;;;;;;;;;;103723;1291;548120;-73
2024/02/06 15:45:47;;;;;;;10.50;5.20;;;;;;;;;;103841;1289;545491;-73
2024/02/06 15:49:22;;;;;;;9.40;4.70;;;;;;;;;;104111;1290;544717;-74
2024/02/06 15:52:57;;;;;;;10.70;4.70;;;;;;;;;;104147;1289;545518;-71
2024/02/06 15:56:34;;;;;;;8.30;3.70;;;;;;;;;;103823;1290;545005;-72
2024/02/06 16:00:16;;;;;;;9.70;4.10;;;;;;;;;;103581;1293;545047;-73
2024/02/06 16:03:53;;;;;;;11.60;5.70;;;;;;;;;;103521;1295;545044;-72
2024/02/06 16:07:31;;;;;;;8.70;3.00;;;;;;;;;;103496;1298;545332;-72
2024/02/06 16:11:08;;;;;;;6.50;2.40;;;;;;;;;;103650;1294;545001;-73
2024/02/06 16:14:46;;;;;;;8.10;2.70;;;;;;;;;;103770;1292;545635;-74
2024/02/06 16:18:23;;;;;;;6.40;2.30;;;;;;;;;;103799;1290;544793;-73
2024/02/06 16:22:02;;;;;;;8.30;3.60;;;;;;;;;;103798;1292;545261;-73
2024/02/06 16:25:34;;;;;;;7.70;3.40;;;;;;;;;;103768;1289;544953;-71
2024/02/06 16:29:12;;;;;;;7.60;3.20;;;;;;;;;;103855;1291;545182;-71
2024/02/06 16:32:53;;;;;;;19.10;10.40;;;;;;;;;;103754;1291;545055;-72
2024/02/06 16:36:31;;;;;;;29.90;15.20;;;;;;;;;;103976;1290;544748;-74
2024/02/06 16:40:13;;;;;;;13.10;3.60;;;;;;;;;;103715;1292;545473;-73
2024/02/06 16:43:45;;;;;;;12.00;7.60;;;;;;;;;;103637;1295;544874;-72
2024/02/06 16:47:29;;;;;;;7.40;2.70;;;;;;;;;;103591;1292;547926;-76
2024/02/06 16:50:56;;;;;;;8.00;3.00;;;;;;;;;;103743;1288;544821;-70
2024/02/06 16:54:38;;;;;;;6.70;3.20;;;;;;;;;;103738;1292;544974;-71
2024/02/06 16:58:17;;;;;;;8.20;2.90;;;;;;;;;;103859;1288;547767;-72
2024/02/06 17:01:53;;;;;;;8.10;2.40;;;;;;;;;;103724;1291;545658;-73
2024/02/06 17:05:30;;;;;;;7.30;3.70;;;;;;;;;;103892;1292;544971;-73
2024/02/06 17:09:08;;;;;;;8.00;3.70;;;;;;;;;;103824;1288;544905;-71
2024/02/06 17:12:47;;;;;;;7.30;2.90;;;;;;;;;;103753;1291;545028;-72
2024/02/06 17:16:22;;;;;;;6.30;2.40;;;;;;;;;;103887;1291;544839;-73
2024/02/06 17:20:00;;;;;;;10.70;4.60;;;;;;;;;;103884;1296;545309;-74
2024/02/06 17:23:37;;;;;;;11.90;5.10;;;;;;;;;;103886;1301;545156;-72
2024/02/06 17:27:12;;;;;;;8.30;3.80;;;;;;;;;;103782;1292;545714;-74
2024/02/06 17:30:49;;;;;;;8.40;3.50;;;;;;;;;;103910;1289;544719;-73
2024/02/06 17:34:26;;;;;;;7.40;3.10;;;;;;;;;;103839;1288;545475;-72
2024/02/06 17:38:08;;;;;;;13.80;8.70;;;;;;;;;;103888;1292;545213;-74
2024/02/06 17:41:46;;;;;;;9.00;4.60;;;;;;;;;;103764;1292;544724;-73
2024/02/06 17:45:22;;;;;;;5.90;2.40;;;;;;;;;;103852;1289;544941;-72
2024/02/06 17:49:03;;;;;;;7.50;3.00;;;;;;;;;;103695;1289;548166;-72
2024/02/06 17:52:43;;;;;;;7.00;3.00;;;;;;;;;;103836;1289;547807;-73
2024/02/06 17:56:16;;;;;;;7.20;2.70;;;;;;;;;;103863;1289;545187;-73
2024/02/06 17:59:52;;;;;;;7.10;2.70;;;;;;;;;;103680;1297;544978;-72
2024/02/06 18:03:30;;;;;;;6.60;2.70;;;;;;;;;;103770;1295;545248;-73
2024/02/06 18:07:07;;;;;;;7.20;3.30;;;;;;;;;;103689;1292;544792;-72
2024/02/06 18:10:45;;;;;;;6.80;3.20;;;;;;;;;;103687;1292;544963;-74
2024/02/06 18:14:23;;;;;;;9.30;3.60;;;;;;;;;;103779;1302;545591;-74
2024/02/06 18:17:56;;;;;;;6.70;2.50;;;;;;;;;;103902;1289;544769;-75
2024/02/06 18:21:37;;;;;;;7.30;3.30;;;;;;;;;;103798;1292;545126;-75
2024/02/06 18:25:22;;;;;;;8.00;3.70;;;;;;;;;;104277;1285;549207;-71
2024/02/06 18:28:52;;;;;;;7.90;3.30;;;;;;;;;;103841;1291;545249;-73
2024/02/06 18:32:29;;;;;;;7.70;3.40;;;;;;;;;;103755;1289;546855;-72
2024/02/06 18:36:09;;;;;;;9.30;2.40;;;;;;;;;;103840;1289;545464;-72
2024/02/06 18:39:41;;;;;;;7.00;2.70;;;;;;;;;;104058;1288;544899;-73
2024/02/06 18:43:25;;;;;;;6.90;2.80;;;;;;;;;;103779;1289;545627;-73
2024/02/06 18:46:55;;;;;;;5.40;2.20;;;;;;;;;;103934;1289;545191;-70
2024/02/06 18:50:36;;;;;;;8.10;3.50;;;;;;;;;;103753;1291;545275;-72
2024/02/06 18:54:15;;;;;;;5.90;2.70;;;;;;;;;;103797;1295;545596;-72
2024/02/06 18:57:51;;;;;;;7.40;3.20;;;;;;;;;;103599;1294;544997;-75
2024/02/06 19:01:29;;;;;;;6.20;2.00;;;;;;;;;;103748;1292;544774;-72
2024/02/06 19:05:03;;;;;;;5.40;2.00;;;;;;;;;;103847;1295;545044;-72
2024/02/06 19:08:44;;;;;;;7.40;2.90;;;;;;;;;;103800;1289;544742;-74
2024/02/06 19:12:21;;;;;;;6.80;2.90;;;;;;;;;;103687;1291;545857;-73
2024/02/06 19:15:59;;;;;;;7.70;2.40;;;;;;;;;;103857;1289;545233;-72
2024/02/06 19:19:36;;;;;;;8.20;2.60;;;;;;;;;;103827;1290;546349;-71
2024/02/06 19:23:17;;;;;;;7.70;2.20;;;;;;;;;;103632;1289;545140;-74
2024/02/06 19:26:51;;;;;;;5.80;2.10;;;;;;;;;;103814;1292;545064;-73
2024/02/06 19:30:28;;;;;;;11.00;4.80;;;;;;;;;;103756;1292;545065;-70
2024/02/06 19:34:06;;;;;;;8.10;2.60;;;;;;;;;;104125;1289;544841;-73
2024/02/06 19:37:43;;;;;;;7.20;2.70;;;;;;;;;;103751;1294;544851;-73
2024/02/06 19:41:20;;;;;;;11.40;4.00;;;;;;;;;;103744;1288;545065;-68
2024/02/06 19:44:54;;;;;;;11.60;5.60;;;;;;;;;;103974;1297;545584;-72
2024/02/06 19:48:35;;;;;;;10.10;4.70;;;;;;;;;;103587;1292;545215;-71
2024/02/06 19:52:13;;;;;;;17.40;8.60;;;;;;;;;;103808;1292;545059;-72
2024/02/06 19:55:50;;;;;;;11.20;5.50;;;;;;;;;;103788;1292;544908;-74
2024/02/06 19:59:28;;;;;;;23.60;12.60;;;;;;;;;;103601;1295;544873;-73
2024/02/06 20:03:05;;;;;;;10.50;5.30;;;;;;;;;;103872;1291;545568;-69
2024/02/06 20:06:43;;;;;;;7.90;3.90;;;;;;;;;;103809;1289;545908;-70
2024/02/06 20:10:20;;;;;;;11.50;5.70;;;;;;;;;;103712;1291;544969;-73
2024/02/06 20:13:58;;;;;;;8.80;3.60;;;;;;;;;;103798;1294;545160;-73
2024/02/06 20:17:35;;;;;;;11.30;4.00;;;;;;;;;;103972;1289;544969;-73
2024/02/06 20:21:12;;;;;;;8.10;3.20;;;;;;;;;;103815;1289;544772;-74
2024/02/06 20:24:50;;;;;;;8.60;3.90;;;;;;;;;;103753;1292;545584;-75
2024/02/06 20:28:27;;;;;;;8.50;3.60;;;;;;;;;;103807;1289;544873;-74
2024/02/06 20:32:04;;;;;;;8.70;4.00;;;;;;;;;;104216;1285;544970;-74
2024/02/06 20:35:48;;;;;;;8.90;3.30;;;;;;;;;;103567;1292;547838;-72
2024/02/06 20:39:20;;;;;;;7.40;2.90;;;;;;;;;;103809;1289;545505;-73
2024/02/06 20:42:58;;;;;;;8.80;3.40;;;;;;;;;;103797;1289;545674;-74
2024/02/06 20:46:34;;;;;;;6.10;2.20;;;;;;;;;;103883;1289;544808;-72
2024/02/06 20:50:13;;;;;;;7.40;2.50;;;;;;;;;;103781;1291;545005;-73
2024/02/06 20:53:49;;;;;;;7.40;2.80;;;;;;;;;;103834;1289;544749;-74
2024/02/06 20:57:27;;;;;;;8.20;2.80;;;;;;;;;;103775;1290;545112;-73
2024/02/06 21:01:04;;;;;;;5.70;2.60;;;;;;;;;;103656;1292;545051;-72